sensor_id;sensor_type;location;lat;lon;timestamp;temperature;humidity
66962;HTU21D;53897;51.126;5.868;2022-09-09T00:01:13;26.77;47.82
66962;HTU21D;53897;51.126;5.868;2022-09-09T00:04:25;26.77;47.83
66962;HTU21D;53897;51.126;5.868;2022-09-09T00:07:17;26.78;47.83
66962;HTU21D;53897;51.126;5.868;2022-09-09T00:15:19;26.75;47.74
66962;HTU21D;53897;51.126;5.868;2022-09-09T00:17:53;26.75;47.76
66962;HTU21D;53897;51.126;5.868;2022-09-09T00:23:24;26.73;47.72
66962;HTU21D;53897;51.126;5.868;2022-09-09T00:26:04;26.73;47.71
66962;HTU21D;53897;51.126;5.868;2022-09-09T00:28:35;26.71;47.70
66962;HTU21D;53897;51.126;5.868;2022-09-09T00:31:13;26.72;47.70
66962;HTU21D;53897;51.126;5.868;2022-09-09T00:33:42;26.71;47.68
66962;HTU21D;53897;51.126;5.868;2022-09-09T00:36:18;26.71;47.64
66962;HTU21D;53897;51.126;5.868;2022-09-09T00:38:52;26.71;47.62
66962;HTU21D;53897;51.126;5.868;2022-09-09T00:44:00;26.69;47.57
66962;HTU21D;53897;51.126;5.868;2022-09-09T00:46:41;26.68;47.55
66962;HTU21D;53897;51.126;5.868;2022-09-09T00:52:26;26.68;47.50
66962;HTU21D;53897;51.126;5.868;2022-09-09T00:57:32;26.67;47.47
66962;HTU21D;53897;51.126;5.868;2022-09-09T01:08:00;26.66;47.41
66962;HTU21D;53897;51.126;5.868;2022-09-09T01:10:50;26.63;47.41
66962;HTU21D;53897;51.126;5.868;2022-09-09T01:13:30;26.64;47.42
66962;HTU21D;53897;51.126;5.868;2022-09-09T01:15:59;26.62;47.39
66962;HTU21D;53897;51.126;5.868;2022-09-09T01:18:30;26.62;47.40
66962;HTU21D;53897;51.126;5.868;2022-09-09T01:24:22;26.61;47.39
66962;HTU21D;53897;51.126;5.868;2022-09-09T01:27:06;26.60;47.37
66962;HTU21D;53897;51.126;5.868;2022-09-09T01:29:33;26.60;47.35
66962;HTU21D;53897;51.126;5.868;2022-09-09T01:32:02;26.60;47.34
66962;HTU21D;53897;51.126;5.868;2022-09-09T01:34:39;26.58;47.30
66962;HTU21D;53897;51.126;5.868;2022-09-09T01:37:09;26.58;47.28
66962;HTU21D;53897;51.126;5.868;2022-09-09T01:39:39;26.57;47.28
66962;HTU21D;53897;51.126;5.868;2022-09-09T01:42:15;26.56;47.28
66962;HTU21D;53897;51.126;5.868;2022-09-09T01:44:41;26.56;47.25
66962;HTU21D;53897;51.126;5.868;2022-09-09T01:47:07;26.56;47.25
66962;HTU21D;53897;51.126;5.868;2022-09-09T01:49:37;26.55;47.25
66962;HTU21D;53897;51.126;5.868;2022-09-09T01:52:09;26.54;47.23
66962;HTU21D;53897;51.126;5.868;2022-09-09T01:54:37;26.55;47.22
66962;HTU21D;53897;51.126;5.868;2022-09-09T01:57:27;26.53;47.22
66962;HTU21D;53897;51.126;5.868;2022-09-09T02:00:05;26.54;47.21
66962;HTU21D;53897;51.126;5.868;2022-09-09T02:02:44;26.52;47.21
66962;HTU21D;53897;51.126;5.868;2022-09-09T02:05:37;26.51;47.18
66962;HTU21D;53897;51.126;5.868;2022-09-09T02:08:23;26.52;47.17
66962;HTU21D;53897;51.126;5.868;2022-09-09T02:11:06;26.51;47.14
66962;HTU21D;53897;51.126;5.868;2022-09-09T02:13:43;26.51;47.15
66962;HTU21D;53897;51.126;5.868;2022-09-09T02:21:52;26.49;47.07
66962;HTU21D;53897;51.126;5.868;2022-09-09T02:24:19;26.49;47.11
66962;HTU21D;53897;51.126;5.868;2022-09-09T02:26:55;26.49;47.13
66962;HTU21D;53897;51.126;5.868;2022-09-09T02:29:31;26.48;47.15
66962;HTU21D;53897;51.126;5.868;2022-09-09T02:32:03;26.48;47.15
66962;HTU21D;53897;51.126;5.868;2022-09-09T02:34:40;26.48;47.15
66962;HTU21D;53897;51.126;5.868;2022-09-09T02:37:10;26.47;47.12
66962;HTU21D;53897;51.126;5.868;2022-09-09T02:39:39;26.46;47.10
66962;HTU21D;53897;51.126;5.868;2022-09-09T02:42:07;26.45;47.09
66962;HTU21D;53897;51.126;5.868;2022-09-09T02:44:35;26.46;47.08
66962;HTU21D;53897;51.126;5.868;2022-09-09T02:58:04;26.43;47.03
66962;HTU21D;53897;51.126;5.868;2022-09-09T03:00:32;26.42;47.01
66962;HTU21D;53897;51.126;5.868;2022-09-09T03:03:01;26.42;47.01
66962;HTU21D;53897;51.126;5.868;2022-09-09T03:05:27;26.41;46.97
66962;HTU21D;53897;51.126;5.868;2022-09-09T03:07:54;26.42;46.93
66962;HTU21D;53897;51.126;5.868;2022-09-09T03:10:20;26.41;46.93
66962;HTU21D;53897;51.126;5.868;2022-09-09T03:12:46;26.41;46.90
66962;HTU21D;53897;51.126;5.868;2022-09-09T03:15:12;26.39;46.87
66962;HTU21D;53897;51.126;5.868;2022-09-09T03:17:39;26.39;46.84
66962;HTU21D;53897;51.126;5.868;2022-09-09T03:20:05;26.39;46.80
66962;HTU21D;53897;51.126;5.868;2022-09-09T03:22:32;26.38;46.77
66962;HTU21D;53897;51.126;5.868;2022-09-09T03:24:59;26.37;46.77
66962;HTU21D;53897;51.126;5.868;2022-09-09T03:27:25;26.37;46.78
66962;HTU21D;53897;51.126;5.868;2022-09-09T03:29:52;26.38;46.74
66962;HTU21D;53897;51.126;5.868;2022-09-09T03:32:21;26.37;46.76
66962;HTU21D;53897;51.126;5.868;2022-09-09T03:34:48;26.37;46.72
66962;HTU21D;53897;51.126;5.868;2022-09-09T03:37:18;26.36;46.68
66962;HTU21D;53897;51.126;5.868;2022-09-09T03:39:45;26.35;46.69
66962;HTU21D;53897;51.126;5.868;2022-09-09T03:42:15;26.36;46.67
66962;HTU21D;53897;51.126;5.868;2022-09-09T03:44:45;26.34;46.61
66962;HTU21D;53897;51.126;5.868;2022-09-09T03:47:17;26.35;46.68
66962;HTU21D;53897;51.126;5.868;2022-09-09T03:49:44;26.34;46.67
66962;HTU21D;53897;51.126;5.868;2022-09-09T03:52:09;26.34;46.64
66962;HTU21D;53897;51.126;5.868;2022-09-09T03:54:35;26.33;46.67
66962;HTU21D;53897;51.126;5.868;2022-09-09T03:57:01;26.33;46.65
66962;HTU21D;53897;51.126;5.868;2022-09-09T03:59:27;26.33;46.66
66962;HTU21D;53897;51.126;5.868;2022-09-09T04:01:53;26.33;46.66
66962;HTU21D;53897;51.126;5.868;2022-09-09T04:04:20;26.31;46.64
66962;HTU21D;53897;51.126;5.868;2022-09-09T04:06:46;26.31;46.63
66962;HTU21D;53897;51.126;5.868;2022-09-09T04:09:14;26.31;46.60
66962;HTU21D;53897;51.126;5.868;2022-09-09T04:11:41;26.30;46.60
66962;HTU21D;53897;51.126;5.868;2022-09-09T04:14:07;26.30;46.60
66962;HTU21D;53897;51.126;5.868;2022-09-09T04:16:34;26.28;46.60
66962;HTU21D;53897;51.126;5.868;2022-09-09T04:19:03;26.30;46.57
66962;HTU21D;53897;51.126;5.868;2022-09-09T04:21:30;26.28;46.54
66962;HTU21D;53897;51.126;5.868;2022-09-09T04:23:56;26.27;46.51
66962;HTU21D;53897;51.126;5.868;2022-09-09T04:26:22;26.27;46.52
66962;HTU21D;53897;51.126;5.868;2022-09-09T04:28:48;26.26;46.52
66962;HTU21D;53897;51.126;5.868;2022-09-09T04:31:20;26.26;46.51
66962;HTU21D;53897;51.126;5.868;2022-09-09T04:33:50;26.26;46.48
66962;HTU21D;53897;51.126;5.868;2022-09-09T04:36:18;26.25;46.47
66962;HTU21D;53897;51.126;5.868;2022-09-09T04:38:45;26.24;46.45
66962;HTU21D;53897;51.126;5.868;2022-09-09T04:41:14;26.24;46.44
66962;HTU21D;53897;51.126;5.868;2022-09-09T04:43:42;26.25;46.41
66962;HTU21D;53897;51.126;5.868;2022-09-09T04:46:09;26.24;46.35
66962;HTU21D;53897;51.126;5.868;2022-09-09T04:48:35;26.23;46.29
66962;HTU21D;53897;51.126;5.868;2022-09-09T04:51:04;26.21;46.30
66962;HTU21D;53897;51.126;5.868;2022-09-09T04:53:32;26.22;46.28
66962;HTU21D;53897;51.126;5.868;2022-09-09T04:56:12;26.22;46.26
66962;HTU21D;53897;51.126;5.868;2022-09-09T04:58:42;26.22;46.28
66962;HTU21D;53897;51.126;5.868;2022-09-09T05:01:15;26.20;46.28
66962;HTU21D;53897;51.126;5.868;2022-09-09T05:03:44;26.20;46.31
66962;HTU21D;53897;51.126;5.868;2022-09-09T05:06:19;26.20;46.31
66962;HTU21D;53897;51.126;5.868;2022-09-09T05:08:47;26.19;46.31
66962;HTU21D;53897;51.126;5.868;2022-09-09T05:13:45;26.15;46.41
66962;HTU21D;53897;51.126;5.868;2022-09-09T05:16:12;26.13;46.44
66962;HTU21D;53897;51.126;5.868;2022-09-09T05:18:39;26.12;46.41
66962;HTU21D;53897;51.126;5.868;2022-09-09T05:21:07;26.13;46.35
66962;HTU21D;53897;51.126;5.868;2022-09-09T05:23:36;26.13;46.34
66962;HTU21D;53897;51.126;5.868;2022-09-09T05:26:03;26.15;46.35
66962;HTU21D;53897;51.126;5.868;2022-09-09T05:28:30;26.13;46.35
66962;HTU21D;53897;51.126;5.868;2022-09-09T05:31:01;26.15;46.28
66962;HTU21D;53897;51.126;5.868;2022-09-09T05:33:31;26.13;46.33
66962;HTU21D;53897;51.126;5.868;2022-09-09T05:36:01;26.12;46.39
66962;HTU21D;53897;51.126;5.868;2022-09-09T05:38:28;26.13;46.38
66962;HTU21D;53897;51.126;5.868;2022-09-09T05:40:55;26.13;46.35
66962;HTU21D;53897;51.126;5.868;2022-09-09T05:43:23;26.13;46.31
66962;HTU21D;53897;51.126;5.868;2022-09-09T05:46:01;26.11;46.30
66962;HTU21D;53897;51.126;5.868;2022-09-09T05:48:29;26.12;46.27
66962;HTU21D;53897;51.126;5.868;2022-09-09T05:50:55;26.10;46.27
66962;HTU21D;53897;51.126;5.868;2022-09-09T05:53:21;26.09;46.31
66962;HTU21D;53897;51.126;5.868;2022-09-09T05:55:47;26.08;46.31
66962;HTU21D;53897;51.126;5.868;2022-09-09T05:58:13;26.07;46.32
66962;HTU21D;53897;51.126;5.868;2022-09-09T06:00:43;26.07;46.35
66962;HTU21D;53897;51.126;5.868;2022-09-09T06:03:11;26.07;46.39
66962;HTU21D;53897;51.126;5.868;2022-09-09T06:05:38;26.06;46.41
66962;HTU21D;53897;51.126;5.868;2022-09-09T06:08:04;26.06;46.44
66962;HTU21D;53897;51.126;5.868;2022-09-09T06:10:30;26.05;46.40
66962;HTU21D;53897;51.126;5.868;2022-09-09T06:12:56;26.05;46.35
66962;HTU21D;53897;51.126;5.868;2022-09-09T06:15:21;26.04;46.35
66962;HTU21D;53897;51.126;5.868;2022-09-09T06:17:47;26.04;46.38
66962;HTU21D;53897;51.126;5.868;2022-09-09T06:20:19;26.03;46.40
66962;HTU21D;53897;51.126;5.868;2022-09-09T06:22:45;26.02;46.40
66962;HTU21D;53897;51.126;5.868;2022-09-09T06:25:12;26.02;46.43
66962;HTU21D;53897;51.126;5.868;2022-09-09T06:27:38;25.99;46.46
66962;HTU21D;53897;51.126;5.868;2022-09-09T06:30:04;25.98;46.54
66962;HTU21D;53897;51.126;5.868;2022-09-09T06:32:30;25.98;46.60
66962;HTU21D;53897;51.126;5.868;2022-09-09T06:34:59;25.99;46.63
66962;HTU21D;53897;51.126;5.868;2022-09-09T06:37:27;25.98;46.62
66962;HTU21D;53897;51.126;5.868;2022-09-09T06:39:53;25.97;46.60
66962;HTU21D;53897;51.126;5.868;2022-09-09T06:42:20;25.97;46.59
66962;HTU21D;53897;51.126;5.868;2022-09-09T06:44:48;25.98;46.54
66962;HTU21D;53897;51.126;5.868;2022-09-09T06:47:23;25.96;46.51
66962;HTU21D;53897;51.126;5.868;2022-09-09T06:49:50;25.97;46.51
66962;HTU21D;53897;51.126;5.868;2022-09-09T06:52:16;25.97;46.48
66962;HTU21D;53897;51.126;5.868;2022-09-09T06:54:43;25.95;46.47
66962;HTU21D;53897;51.126;5.868;2022-09-09T06:57:12;25.95;46.48
66962;HTU21D;53897;51.126;5.868;2022-09-09T06:59:38;25.94;46.44
66962;HTU21D;53897;51.126;5.868;2022-09-09T07:02:04;25.94;46.42
66962;HTU21D;53897;51.126;5.868;2022-09-09T07:04:31;25.94;46.38
66962;HTU21D;53897;51.126;5.868;2022-09-09T07:06:56;25.92;46.35
66962;HTU21D;53897;51.126;5.868;2022-09-09T07:09:24;25.91;46.30
66962;HTU21D;53897;51.126;5.868;2022-09-09T07:11:52;25.90;46.35
66962;HTU21D;53897;51.126;5.868;2022-09-09T07:14:19;25.90;46.35
66962;HTU21D;53897;51.126;5.868;2022-09-09T07:16:48;25.90;46.33
66962;HTU21D;53897;51.126;5.868;2022-09-09T07:19:16;25.91;46.31
66962;HTU21D;53897;51.126;5.868;2022-09-09T07:21:43;25.92;46.38
66962;HTU21D;53897;51.126;5.868;2022-09-09T07:24:11;25.91;46.43
66962;HTU21D;53897;51.126;5.868;2022-09-09T07:26:39;25.92;46.54
66962;HTU21D;53897;51.126;5.868;2022-09-09T07:29:06;25.91;46.62
66962;HTU21D;53897;51.126;5.868;2022-09-09T07:31:35;25.92;46.50
66962;HTU21D;53897;51.126;5.868;2022-09-09T07:34:04;25.94;46.45
66962;HTU21D;53897;51.126;5.868;2022-09-09T07:36:33;25.96;46.44
66962;HTU21D;53897;51.126;5.868;2022-09-09T07:39:05;25.99;46.41
66962;HTU21D;53897;51.126;5.868;2022-09-09T07:41:38;26.01;46.33
66962;HTU21D;53897;51.126;5.868;2022-09-09T07:44:11;26.02;46.22
66962;HTU21D;53897;51.126;5.868;2022-09-09T07:46:38;26.02;46.12
66962;HTU21D;53897;51.126;5.868;2022-09-09T07:49:10;26.03;46.08
66962;HTU21D;53897;51.126;5.868;2022-09-09T07:51:39;26.02;46.09
66962;HTU21D;53897;51.126;5.868;2022-09-09T07:54:08;26.04;46.06
66962;HTU21D;53897;51.126;5.868;2022-09-09T07:56:37;26.05;46.09
66962;HTU21D;53897;51.126;5.868;2022-09-09T07:59:06;26.06;46.07
66962;HTU21D;53897;51.126;5.868;2022-09-09T08:01:39;26.05;46.06
66962;HTU21D;53897;51.126;5.868;2022-09-09T08:04:10;26.05;46.06
66962;HTU21D;53897;51.126;5.868;2022-09-09T08:06:44;26.05;46.01
66962;HTU21D;53897;51.126;5.868;2022-09-09T08:09:12;26.06;45.99
66962;HTU21D;53897;51.126;5.868;2022-09-09T08:11:39;26.05;45.95
66962;HTU21D;53897;51.126;5.868;2022-09-09T08:14:07;26.05;45.93
66962;HTU21D;53897;51.126;5.868;2022-09-09T08:16:36;26.05;45.91
66962;HTU21D;53897;51.126;5.868;2022-09-09T08:19:04;26.06;45.88
66962;HTU21D;53897;51.126;5.868;2022-09-09T08:21:32;26.05;45.84
66962;HTU21D;53897;51.126;5.868;2022-09-09T08:24:01;26.05;45.80
66962;HTU21D;53897;51.126;5.868;2022-09-09T08:26:35;26.03;45.77
66962;HTU21D;53897;51.126;5.868;2022-09-09T08:29:03;26.03;45.70
66962;HTU21D;53897;51.126;5.868;2022-09-09T08:31:35;26.04;45.70
66962;HTU21D;53897;51.126;5.868;2022-09-09T08:34:04;26.03;45.72
66962;HTU21D;53897;51.126;5.868;2022-09-09T08:36:34;26.03;45.72
66962;HTU21D;53897;51.126;5.868;2022-09-09T08:39:04;26.04;45.70
66962;HTU21D;53897;51.126;5.868;2022-09-09T08:50:05;26.03;45.77
66962;HTU21D;53897;51.126;5.868;2022-09-09T08:55:41;26.04;45.73
66962;HTU21D;53897;51.126;5.868;2022-09-09T08:58:15;26.05;45.61
66962;HTU21D;53897;51.126;5.868;2022-09-09T09:09:34;26.04;45.37
66962;HTU21D;53897;51.126;5.868;2022-09-09T09:12:15;26.04;45.29
66962;HTU21D;53897;51.126;5.868;2022-09-09T09:14:46;26.03;45.25
66962;HTU21D;53897;51.126;5.868;2022-09-09T09:17:17;26.01;45.22
66962;HTU21D;53897;51.126;5.868;2022-09-09T09:19:47;26.01;45.17
66962;HTU21D;53897;51.126;5.868;2022-09-09T09:25:16;25.98;45.00
66962;HTU21D;53897;51.126;5.868;2022-09-09T09:28:22;25.97;45.03
66962;HTU21D;53897;51.126;5.868;2022-09-09T09:30:58;25.96;45.06
66962;HTU21D;53897;51.126;5.868;2022-09-09T09:36:00;25.97;45.15
66962;HTU21D;53897;51.126;5.868;2022-09-09T09:38:28;25.97;45.18
66962;HTU21D;53897;51.126;5.868;2022-09-09T09:40:59;25.98;45.19
66962;HTU21D;53897;51.126;5.868;2022-09-09T09:43:32;25.99;45.23
66962;HTU21D;53897;51.126;5.868;2022-09-09T09:46:19;25.98;45.24
66962;HTU21D;53897;51.126;5.868;2022-09-09T09:49:00;25.99;45.26
66962;HTU21D;53897;51.126;5.868;2022-09-09T09:51:30;26.01;45.28
66962;HTU21D;53897;51.126;5.868;2022-09-09T09:54:27;26.02;45.29
66962;HTU21D;53897;51.126;5.868;2022-09-09T09:57:09;26.02;45.30
66962;HTU21D;53897;51.126;5.868;2022-09-09T09:59:36;26.03;45.29
66962;HTU21D;53897;51.126;5.868;2022-09-09T10:02:18;26.03;45.28
66962;HTU21D;53897;51.126;5.868;2022-09-09T10:04:47;26.03;45.30
66962;HTU21D;53897;51.126;5.868;2022-09-09T10:07:21;26.04;45.29
66962;HTU21D;53897;51.126;5.868;2022-09-09T10:09:57;26.05;45.32
66962;HTU21D;53897;51.126;5.868;2022-09-09T10:12:45;26.05;45.32
66962;HTU21D;53897;51.126;5.868;2022-09-09T10:16:19;26.05;45.30
66962;HTU21D;53897;51.126;5.868;2022-09-09T10:26:35;26.07;45.32
66962;HTU21D;53897;51.126;5.868;2022-09-09T10:29:18;26.07;45.37
66962;HTU21D;53897;51.126;5.868;2022-09-09T10:32:30;26.07;45.41
66962;HTU21D;53897;51.126;5.868;2022-09-09T10:40:41;26.08;45.35
66962;HTU21D;53897;51.126;5.868;2022-09-09T10:46:10;26.08;45.35
66962;HTU21D;53897;51.126;5.868;2022-09-09T11:00:04;26.06;45.35
66962;HTU21D;53897;51.126;5.868;2022-09-09T11:02:34;26.06;45.35
66962;HTU21D;53897;51.126;5.868;2022-09-09T11:05:04;26.06;45.34
66962;HTU21D;53897;51.126;5.868;2022-09-09T11:07:44;26.05;45.33
66962;HTU21D;53897;51.126;5.868;2022-09-09T11:10:46;26.06;45.28
66962;HTU21D;53897;51.126;5.868;2022-09-09T11:13:28;26.05;45.28
66962;HTU21D;53897;51.126;5.868;2022-09-09T11:16:14;26.06;45.27
66962;HTU21D;53897;51.126;5.868;2022-09-09T11:18:42;26.05;45.26
66962;HTU21D;53897;51.126;5.868;2022-09-09T11:21:30;26.05;45.29
66962;HTU21D;53897;51.126;5.868;2022-09-09T11:24:04;26.04;45.33
66962;HTU21D;53897;51.126;5.868;2022-09-09T11:26:51;26.04;45.52
66962;HTU21D;53897;51.126;5.868;2022-09-09T11:40:27;26.06;45.73
66962;HTU21D;53897;51.126;5.868;2022-09-09T11:43:15;26.07;45.76
66962;HTU21D;53897;51.126;5.868;2022-09-09T11:45:52;26.08;45.75
66962;HTU21D;53897;51.126;5.868;2022-09-09T11:48:31;26.07;45.77
66962;HTU21D;53897;51.126;5.868;2022-09-09T11:51:01;26.08;45.83
66962;HTU21D;53897;51.126;5.868;2022-09-09T11:53:29;26.09;45.86
66962;HTU21D;53897;51.126;5.868;2022-09-09T11:56:11;26.09;45.86
66962;HTU21D;53897;51.126;5.868;2022-09-09T11:58:43;26.09;45.86
66962;HTU21D;53897;51.126;5.868;2022-09-09T12:01:41;26.11;45.85
66962;HTU21D;53897;51.126;5.868;2022-09-09T12:04:13;26.10;45.90
66962;HTU21D;53897;51.126;5.868;2022-09-09T12:06:46;26.11;45.89
66962;HTU21D;53897;51.126;5.868;2022-09-09T12:14:54;26.12;45.91
66962;HTU21D;53897;51.126;5.868;2022-09-09T12:17:20;26.13;45.94
66962;HTU21D;53897;51.126;5.868;2022-09-09T12:20:21;26.13;45.94
66962;HTU21D;53897;51.126;5.868;2022-09-09T12:28:11;26.17;46.02
66962;HTU21D;53897;51.126;5.868;2022-09-09T12:31:31;26.16;46.04
66962;HTU21D;53897;51.126;5.868;2022-09-09T12:33:40;26.17;46.03
66962;HTU21D;53897;51.126;5.868;2022-09-09T12:36:31;26.18;46.09
66962;HTU21D;53897;51.126;5.868;2022-09-09T12:39:10;26.19;46.10
66962;HTU21D;53897;51.126;5.868;2022-09-09T12:41:40;26.19;46.06
66962;HTU21D;53897;51.126;5.868;2022-09-09T12:44:10;26.21;46.06
66962;HTU21D;53897;51.126;5.868;2022-09-09T12:46:44;26.21;46.04
66962;HTU21D;53897;51.126;5.868;2022-09-09T12:49:29;26.21;46.03
66962;HTU21D;53897;51.126;5.868;2022-09-09T12:52:17;26.23;46.02
66962;HTU21D;53897;51.126;5.868;2022-09-09T12:54:47;26.23;46.00
66962;HTU21D;53897;51.126;5.868;2022-09-09T12:57:14;26.24;46.01
66962;HTU21D;53897;51.126;5.868;2022-09-09T12:59:43;26.23;45.99
66962;HTU21D;53897;51.126;5.868;2022-09-09T13:02:26;26.24;46.01
66962;HTU21D;53897;51.126;5.868;2022-09-09T13:04:54;26.24;46.01
66962;HTU21D;53897;51.126;5.868;2022-09-09T13:07:21;26.24;46.01
66962;HTU21D;53897;51.126;5.868;2022-09-09T13:09:48;26.26;45.97
66962;HTU21D;53897;51.126;5.868;2022-09-09T13:12:18;26.25;45.99
66962;HTU21D;53897;51.126;5.868;2022-09-09T13:14:49;26.23;46.02
66962;HTU21D;53897;51.126;5.868;2022-09-09T13:17:24;26.24;46.05
66962;HTU21D;53897;51.126;5.868;2022-09-09T13:19:52;26.24;46.06
66962;HTU21D;53897;51.126;5.868;2022-09-09T13:22:35;26.24;46.07
66962;HTU21D;53897;51.126;5.868;2022-09-09T13:25:06;26.24;46.09
66962;HTU21D;53897;51.126;5.868;2022-09-09T13:27:50;26.25;46.09
66962;HTU21D;53897;51.126;5.868;2022-09-09T13:38:19;26.24;46.02
66962;HTU21D;53897;51.126;5.868;2022-09-09T13:41:00;26.22;46.08
66962;HTU21D;53897;51.126;5.868;2022-09-09T13:43:41;26.23;46.09
66962;HTU21D;53897;51.126;5.868;2022-09-09T13:48:58;26.23;46.14
66962;HTU21D;53897;51.126;5.868;2022-09-09T13:54:06;26.24;46.25
66962;HTU21D;53897;51.126;5.868;2022-09-09T13:56:35;26.24;46.26
66962;HTU21D;53897;51.126;5.868;2022-09-09T13:59:03;26.23;46.27
66962;HTU21D;53897;51.126;5.868;2022-09-09T14:01:29;26.24;46.38
66962;HTU21D;53897;51.126;5.868;2022-09-09T14:03:56;26.25;46.38
66962;HTU21D;53897;51.126;5.868;2022-09-09T14:06:21;26.26;46.33
66962;HTU21D;53897;51.126;5.868;2022-09-09T14:08:49;26.26;46.31
66962;HTU21D;53897;51.126;5.868;2022-09-09T14:11:16;26.26;46.33
66962;HTU21D;53897;51.126;5.868;2022-09-09T14:13:42;26.27;46.32
66962;HTU21D;53897;51.126;5.868;2022-09-09T14:16:08;26.27;46.31
66962;HTU21D;53897;51.126;5.868;2022-09-09T14:18:33;26.27;46.31
66962;HTU21D;53897;51.126;5.868;2022-09-09T14:20:59;26.28;46.31
66962;HTU21D;53897;51.126;5.868;2022-09-09T14:23:25;26.30;46.34
66962;HTU21D;53897;51.126;5.868;2022-09-09T14:25:51;26.32;46.32
66962;HTU21D;53897;51.126;5.868;2022-09-09T14:28:17;26.32;46.32
66962;HTU21D;53897;51.126;5.868;2022-09-09T14:30:44;26.32;46.34
66962;HTU21D;53897;51.126;5.868;2022-09-09T14:33:14;26.33;46.33
66962;HTU21D;53897;51.126;5.868;2022-09-09T14:35:42;26.32;46.35
66962;HTU21D;53897;51.126;5.868;2022-09-09T14:38:08;26.34;46.35
66962;HTU21D;53897;51.126;5.868;2022-09-09T14:40:36;26.34;46.33
66962;HTU21D;53897;51.126;5.868;2022-09-09T14:43:02;26.34;46.40
66962;HTU21D;53897;51.126;5.868;2022-09-09T14:45:28;26.34;46.49
66962;HTU21D;53897;51.126;5.868;2022-09-09T14:47:54;26.34;46.42
66962;HTU21D;53897;51.126;5.868;2022-09-09T14:50:22;26.35;46.41
66962;HTU21D;53897;51.126;5.868;2022-09-09T14:52:48;26.35;46.51
66962;HTU21D;53897;51.126;5.868;2022-09-09T14:55:14;26.37;46.48
66962;HTU21D;53897;51.126;5.868;2022-09-09T14:57:41;26.36;46.47
66962;HTU21D;53897;51.126;5.868;2022-09-09T15:00:08;26.38;46.46
66962;HTU21D;53897;51.126;5.868;2022-09-09T15:02:35;26.39;46.47
66962;HTU21D;53897;51.126;5.868;2022-09-09T15:05:01;26.38;46.47
66962;HTU21D;53897;51.126;5.868;2022-09-09T15:07:27;26.39;46.46
66962;HTU21D;53897;51.126;5.868;2022-09-09T15:09:54;26.38;46.46
66962;HTU21D;53897;51.126;5.868;2022-09-09T15:12:20;26.39;46.44
66962;HTU21D;53897;51.126;5.868;2022-09-09T15:14:46;26.40;46.44
66962;HTU21D;53897;51.126;5.868;2022-09-09T15:17:13;26.39;46.46
66962;HTU21D;53897;51.126;5.868;2022-09-09T15:19:38;26.38;46.51
66962;HTU21D;53897;51.126;5.868;2022-09-09T15:22:05;26.39;46.50
66962;HTU21D;53897;51.126;5.868;2022-09-09T15:24:32;26.40;46.49
66962;HTU21D;53897;51.126;5.868;2022-09-09T15:26:58;26.39;46.47
66962;HTU21D;53897;51.126;5.868;2022-09-09T15:29:24;26.40;46.48
66962;HTU21D;53897;51.126;5.868;2022-09-09T15:31:50;26.41;46.50
66962;HTU21D;53897;51.126;5.868;2022-09-09T15:34:16;26.41;46.47
66962;HTU21D;53897;51.126;5.868;2022-09-09T15:36:44;26.42;46.47
66962;HTU21D;53897;51.126;5.868;2022-09-09T15:39:16;26.41;46.47
66962;HTU21D;53897;51.126;5.868;2022-09-09T15:41:47;26.41;46.47
66962;HTU21D;53897;51.126;5.868;2022-09-09T15:44:14;26.42;46.47
66962;HTU21D;53897;51.126;5.868;2022-09-09T15:46:46;26.41;46.48
66962;HTU21D;53897;51.126;5.868;2022-09-09T15:49:19;26.40;46.47
66962;HTU21D;53897;51.126;5.868;2022-09-09T15:51:47;26.39;46.54
66962;HTU21D;53897;51.126;5.868;2022-09-09T15:54:16;26.39;46.56
66962;HTU21D;53897;51.126;5.868;2022-09-09T15:56:43;26.39;46.53
66962;HTU21D;53897;51.126;5.868;2022-09-09T15:59:09;26.41;46.54
66962;HTU21D;53897;51.126;5.868;2022-09-09T16:01:35;26.41;46.53
66962;HTU21D;53897;51.126;5.868;2022-09-09T16:04:01;26.41;46.54
66962;HTU21D;53897;51.126;5.868;2022-09-09T16:06:29;26.41;46.61
66962;HTU21D;53897;51.126;5.868;2022-09-09T16:08:57;26.42;46.70
66962;HTU21D;53897;51.126;5.868;2022-09-09T16:11:26;26.41;46.80
66962;HTU21D;53897;51.126;5.868;2022-09-09T16:13:54;26.42;46.97
66962;HTU21D;53897;51.126;5.868;2022-09-09T16:16:23;26.42;47.05
66962;HTU21D;53897;51.126;5.868;2022-09-09T16:19:01;26.45;47.26
66962;HTU21D;53897;51.126;5.868;2022-09-09T16:21:30;26.45;47.38
66962;HTU21D;53897;51.126;5.868;2022-09-09T16:23:58;26.46;47.38
66962;HTU21D;53897;51.126;5.868;2022-09-09T16:26:30;26.47;47.41
66962;HTU21D;53897;51.126;5.868;2022-09-09T16:28:56;26.48;47.39
66962;HTU21D;53897;51.126;5.868;2022-09-09T16:31:24;26.48;47.38
66962;HTU21D;53897;51.126;5.868;2022-09-09T16:33:50;26.48;47.41
66962;HTU21D;53897;51.126;5.868;2022-09-09T16:36:20;26.47;47.41
66962;HTU21D;53897;51.126;5.868;2022-09-09T16:38:46;26.48;47.37
66962;HTU21D;53897;51.126;5.868;2022-09-09T16:41:13;26.49;47.34
66962;HTU21D;53897;51.126;5.868;2022-09-09T16:43:40;26.48;47.31
66962;HTU21D;53897;51.126;5.868;2022-09-09T16:46:16;26.50;47.30
66962;HTU21D;53897;51.126;5.868;2022-09-09T16:48:43;26.50;47.26
66962;HTU21D;53897;51.126;5.868;2022-09-09T16:51:39;26.50;47.25
66962;HTU21D;53897;51.126;5.868;2022-09-09T16:54:07;26.51;47.25
66962;HTU21D;53897;51.126;5.868;2022-09-09T16:56:35;26.50;47.35
66962;HTU21D;53897;51.126;5.868;2022-09-09T16:59:10;26.50;47.41
66962;HTU21D;53897;51.126;5.868;2022-09-09T17:01:38;26.50;47.46
66962;HTU21D;53897;51.126;5.868;2022-09-09T17:04:08;26.50;47.48
66962;HTU21D;53897;51.126;5.868;2022-09-09T17:06:35;26.50;47.48
66962;HTU21D;53897;51.126;5.868;2022-09-09T17:09:10;26.50;47.46
66962;HTU21D;53897;51.126;5.868;2022-09-09T17:11:38;26.51;47.47
66962;HTU21D;53897;51.126;5.868;2022-09-09T17:14:05;26.51;47.49
66962;HTU21D;53897;51.126;5.868;2022-09-09T17:16:33;26.50;47.52
66962;HTU21D;53897;51.126;5.868;2022-09-09T17:19:03;26.49;47.54
66962;HTU21D;53897;51.126;5.868;2022-09-09T17:21:31;26.49;47.50
66962;HTU21D;53897;51.126;5.868;2022-09-09T17:23:57;26.49;47.47
66962;HTU21D;53897;51.126;5.868;2022-09-09T17:26:27;26.49;47.47
66962;HTU21D;53897;51.126;5.868;2022-09-09T17:28:53;26.50;47.48
66962;HTU21D;53897;51.126;5.868;2022-09-09T17:31:21;26.50;47.52
66962;HTU21D;53897;51.126;5.868;2022-09-09T17:33:49;26.50;47.47
66962;HTU21D;53897;51.126;5.868;2022-09-09T17:36:24;26.49;47.40
66962;HTU21D;53897;51.126;5.868;2022-09-09T17:38:51;26.49;47.38
66962;HTU21D;53897;51.126;5.868;2022-09-09T17:41:26;26.50;47.38
66962;HTU21D;53897;51.126;5.868;2022-09-09T17:43:54;26.49;47.38
66962;HTU21D;53897;51.126;5.868;2022-09-09T17:46:22;26.48;47.36
66962;HTU21D;53897;51.126;5.868;2022-09-09T17:48:55;26.49;47.45
66962;HTU21D;53897;51.126;5.868;2022-09-09T17:51:24;26.47;47.46
66962;HTU21D;53897;51.126;5.868;2022-09-09T17:53:54;26.47;47.44
66962;HTU21D;53897;51.126;5.868;2022-09-09T17:56:22;26.47;47.42